Time;durP1;ratioP1;P1;durP2;ratioP2;P2;SDS_P1;SDS_P2;PMS_P1;PMS_P2;Temp;Humidity;BMP_temperature;BMP_pressure;BME280_temperature;BME280_humidity;BME280_pressure;Samples;Min_cycle;Max_cycle;Signal;HPM_P1;HPM_P2
2021/09/28 00:00:11;;;;;;;17.52;2.47;;;;;;;18.00;68.27;101026.81;5090463;28;20451;-62
2021/09/28 00:02:38;;;;;;;19.92;2.85;;;;;;;17.99;68.45;101027.97;5105035;28;20502;-61
2021/09/28 00:05:07;;;;;;;9.32;2.08;;;;;;;18.01;68.38;101036.94;5100579;27;20464;-65
2021/09/28 00:07:33;;;;;;;10.77;1.58;;;;;;;17.86;68.42;101020.38;5100072;28;20048;-66
2021/09/28 00:10:00;;;;;;;7.22;1.77;;;;;;;17.85;68.39;101035.66;5099789;27;20130;-66
2021/09/28 00:12:27;;;;;;;12.82;3.03;;;;;;;17.97;68.91;101044.41;5106263;28;20051;-66
2021/09/28 00:14:54;;;;;;;9.93;1.77;;;;;;;17.92;68.93;101051.00;5107969;28;20124;-66
2021/09/28 00:17:21;;;;;;;7.80;2.20;;;;;;;17.72;68.96;101009.91;5095731;28;20083;-67
2021/09/28 00:19:47;;;;;;;6.22;1.73;;;;;;;17.81;68.75;101028.94;5101160;28;20095;-67
2021/09/28 00:22:14;;;;;;;8.65;2.20;;;;;;;17.88;68.66;101046.31;5106699;28;20087;-65
2021/09/28 00:24:41;;;;;;;9.68;3.17;;;;;;;17.84;68.54;101045.28;5098085;28;20126;-66
2021/09/28 00:27:08;;;;;;;9.25;2.25;;;;;;;17.69;68.72;101037.97;5111104;28;20093;-60
2021/09/28 00:29:35;;;;;;;10.25;2.03;;;;;;;17.66;68.69;101030.13;5099344;28;20045;-60
2021/09/28 00:32:02;;;;;;;8.50;2.17;;;;;;;17.61;69.04;101019.78;5100780;28;20039;-60
2021/09/28 00:34:29;;;;;;;7.70;1.92;;;;;;;17.65;68.86;101028.44;5110920;28;20127;-60
2021/09/28 00:36:55;;;;;;;13.85;2.55;;;;;;;17.47;68.92;101002.00;5100226;27;20122;-60
2021/09/28 00:39:22;;;;;;;8.98;2.03;;;;;;;17.61;69.08;101031.06;5104115;28;20079;-60
2021/09/28 00:41:49;;;;;;;10.80;1.88;;;;;;;17.62;68.93;101037.56;5102910;27;20050;-61
2021/09/28 00:44:16;;;;;;;9.68;2.42;;;;;;;17.60;69.35;101051.97;5101081;28;20094;-62
2021/09/28 00:46:43;;;;;;;6.75;2.13;;;;;;;17.59;69.22;101038.19;5101340;28;20098;-62
2021/09/28 00:49:10;;;;;;;10.40;3.00;;;;;;;17.58;69.67;101042.16;5103283;28;20406;-62
2021/09/28 00:51:36;;;;;;;8.88;2.20;;;;;;;17.54;69.65;101044.78;5092787;28;20681;-62
2021/09/28 00:54:04;;;;;;;6.57;1.40;;;;;;;17.56;69.73;101041.63;5093958;28;20131;-62
2021/09/28 00:56:31;;;;;;;14.60;2.47;;;;;;;17.51;69.58;101036.94;5106728;28;20067;-63
2021/09/28 00:59:00;;;;;;;13.68;2.53;;;;;;;17.52;69.42;101032.97;5095780;28;20044;-65
2021/09/28 01:01:28;;;;;;;9.43;2.47;;;;;;;17.47;69.62;101024.59;5099446;27;20044;-62
2021/09/28 01:03:55;;;;;;;15.55;3.00;;;;;;;17.52;69.85;101021.66;5084677;28;20040;-62
2021/09/28 01:06:22;;;;;;;8.77;2.92;;;;;;;17.50;69.71;101015.50;5103827;28;20083;-63
2021/09/28 01:08:49;;;;;;;13.98;2.22;;;;;;;17.50;69.68;101018.31;5102718;28;20479;-62
2021/09/28 01:11:16;;;;;;;14.13;2.35;;;;;;;17.51;69.91;101031.28;5111511;28;20127;-63
2021/09/28 01:13:42;;;;;;;16.40;2.90;;;;;;;17.52;69.93;101025.31;5091518;28;20048;-63
2021/09/28 01:16:11;;;;;;;16.90;3.10;;;;;;;17.58;69.67;101025.22;5099368;28;20068;-63
2021/09/28 01:18:40;;;;;;;19.50;2.97;;;;;;;17.57;70.07;101021.53;5096109;28;20487;-63
2021/09/28 01:21:11;;;;;;;9.77;2.17;;;;;;;17.46;69.99;100995.53;5101915;27;20054;-61
2021/09/28 01:23:44;;;;;;;18.33;3.05;;;;;;;17.59;69.93;101005.13;5104582;28;20131;-60
2021/09/28 01:26:13;;;;;;;21.27;3.15;;;;;;;17.59;70.31;101009.94;5108978;28;20570;-64
2021/09/28 01:28:40;;;;;;;22.87;3.43;;;;;;;17.49;70.29;100992.06;5097486;28;20170;-59
2021/09/28 01:31:07;;;;;;;12.07;2.35;;;;;;;17.53;70.04;100989.44;5100318;28;20370;-60
2021/09/28 01:33:34;;;;;;;11.77;3.60;;;;;;;17.56;69.84;100994.47;5099334;28;20137;-59
2021/09/28 01:36:01;;;;;;;20.95;3.53;;;;;;;17.62;70.09;100993.19;5102185;28;20587;-61
2021/09/28 01:38:28;;;;;;;18.25;3.63;;;;;;;17.62;69.92;100996.03;5098479;28;20194;-63
2021/09/28 01:40:55;;;;;;;19.88;3.13;;;;;;;17.60;70.04;101000.31;5102211;27;20146;-61
2021/09/28 01:43:21;;;;;;;11.10;3.40;;;;;;;17.53;70.28;100990.28;5097905;28;20450;-59
2021/09/28 01:45:57;;;;;;;12.10;2.85;;;;;;;17.51;70.39;100986.13;5099968;28;20465;-59
2021/09/28 01:48:29;;;;;;;14.82;3.28;;;;;;;17.51;70.03;100977.66;5098424;28;20127;-59
2021/09/28 01:50:56;;;;;;;14.65;2.42;;;;;;;17.56;69.99;100987.97;5104383;28;20135;-61
2021/09/28 01:53:23;;;;;;;20.90;3.25;;;;;;;17.55;70.31;100992.78;5105443;28;20047;-59
2021/09/28 01:55:50;;;;;;;11.60;2.38;;;;;;;17.41;69.92;100964.59;5109752;28;20047;-59
2021/09/28 01:58:17;;;;;;;13.50;2.72;;;;;;;17.48;70.36;100978.28;5077742;28;20076;-59
2021/09/28 02:00:44;;;;;;;16.25;3.72;;;;;;;17.43;70.21;100979.22;5105616;28;20047;-59
2021/09/28 02:03:11;;;;;;;20.67;2.95;;;;;;;17.47;70.20;100974.63;5099699;28;21265;-60
2021/09/28 02:05:39;;;;;;;12.73;2.85;;;;;;;17.43;70.07;100970.75;5093803;28;20052;-61
2021/09/28 02:08:07;;;;;;;13.82;2.75;;;;;;;17.38;70.50;100961.56;5091082;28;20043;-61
2021/09/28 02:10:34;;;;;;;10.35;2.47;;;;;;;17.47;70.12;100973.75;5093332;28;20081;-61
2021/09/28 02:13:01;;;;;;;18.70;3.67;;;;;;;17.45;70.03;100976.91;5100579;28;22417;-61
2021/09/28 02:15:27;;;;;;;17.35;2.88;;;;;;;17.44;70.11;100974.44;5099614;27;20135;-60
2021/09/28 02:17:55;;;;;;;16.45;3.53;;;;;;;17.40;70.63;100974.22;5103412;28;20139;-61
2021/09/28 02:20:21;;;;;;;13.90;2.42;;;;;;;17.35;70.79;100962.19;5099064;28;20043;-61
2021/09/28 02:22:48;;;;;;;14.02;2.78;;;;;;;17.35;70.51;100967.84;5099577;28;20507;-61
2021/09/28 02:25:18;;;;;;;14.38;2.67;;;;;;;17.32;70.58;100962.81;5093045;28;20138;-61
2021/09/28 02:27:45;;;;;;;;;;;;;;;17.28;70.57;100954.97;5101125;28;20122;-63
2021/09/28 02:30:12;;;;;;;16.23;2.58;;;;;;;17.23;70.41;100946.66;5098760;28;20032;-59
2021/09/28 02:32:40;;;;;;;11.32;2.70;;;;;;;17.14;70.30;100942.06;5101035;28;20040;-60
2021/09/28 02:35:07;;;;;;;18.38;3.25;;;;;;;17.27;70.79;100961.78;5097430;28;20059;-60
2021/09/28 02:37:34;;;;;;;16.58;2.92;;;;;;;17.25;70.63;100966.91;5097746;28;20084;-59
2021/09/28 02:40:02;;;;;;;18.13;3.15;;;;;;;17.19;70.53;100968.16;5095165;28;20036;-59
2021/09/28 02:42:29;;;;;;;13.50;3.10;;;;;;;17.27;70.70;100983.53;5093095;28;20079;-63
2021/09/28 02:44:56;;;;;;;13.70;2.65;;;;;;;17.27;70.90;100975.06;5093977;28;20076;-61
2021/09/28 02:47:24;;;;;;;17.35;3.15;;;;;;;17.13;70.65;100960.97;5111532;28;20078;-63
2021/09/28 02:49:51;;;;;;;19.75;3.13;;;;;;;17.14;70.67;100975.91;5098315;28;20044;-65
2021/09/28 02:52:18;;;;;;;15.32;2.53;;;;;;;17.18;70.73;100977.78;5096685;28;20130;-65
2021/09/28 02:54:45;;;;;;;7.75;2.40;;;;;;;17.26;70.69;100996.81;5099107;28;20036;-64
2021/09/28 02:57:11;;;;;;;6.13;2.05;;;;;;;17.18;70.84;100994.72;5098912;28;20186;-63
2021/09/28 02:59:38;;;;;;;7.72;2.60;;;;;;;17.03;70.85;100969.66;5105267;28;20075;-64
2021/09/28 03:02:05;;;;;;;10.45;2.42;;;;;;;17.14;70.71;100990.88;5078370;28;20067;-64
2021/09/28 03:04:33;;;;;;;12.32;2.20;;;;;;;17.05;70.82;100976.63;5104502;28;20047;-63
2021/09/28 03:07:00;;;;;;;12.00;2.75;;;;;;;17.11;70.57;100987.84;5085737;28;20662;-63
2021/09/28 03:09:26;;;;;;;11.48;2.40;;;;;;;17.06;70.46;100983.13;5103671;28;20048;-64
2021/09/28 03:11:53;;;;;;;10.77;2.90;;;;;;;16.90;70.55;100962.03;5094152;28;20131;-64
2021/09/28 03:14:20;;;;;;;18.58;3.28;;;;;;;17.05;70.64;100987.09;5098200;28;20058;-63
2021/09/28 03:16:47;;;;;;;14.23;2.80;;;;;;;17.08;70.92;100994.94;5098263;28;20139;-63
2021/09/28 03:19:16;;;;;;;15.02;3.45;;;;;;;17.00;71.00;100970.28;5098662;28;20048;-64
2021/09/28 03:21:43;;;;;;;10.55;2.47;;;;;;;16.99;70.59;100968.59;5102822;28;20452;-66
2021/09/28 03:24:10;;;;;;;12.07;3.03;;;;;;;17.01;70.76;100988.88;5101764;28;20474;-66
2021/09/28 03:26:37;;;;;;;19.52;3.13;;;;;;;16.86;70.55;100966.63;5096755;28;20140;-65
2021/09/28 03:29:04;;;;;;;10.65;2.30;;;;;;;16.64;70.72;100920.19;5104574;28;20435;-66
2021/09/28 03:31:31;;;;;;;12.95;2.75;;;;;;;16.82;70.45;100946.69;5107444;28;20054;-66
2021/09/28 03:33:58;;;;;;;7.35;1.80;;;;;;;16.94;70.46;100958.25;5105241;28;20116;-66
2021/09/28 03:36:25;;;;;;;20.05;2.80;;;;;;;17.00;70.51;100959.81;5099836;28;20126;-65
2021/09/28 03:38:52;;;;;;;8.50;2.17;;;;;;;16.94;70.68;100961.06;5099577;28;20130;-64
2021/09/28 03:41:19;;;;;;;10.48;2.55;;;;;;;16.99;70.07;100957.31;5105198;28;20100;-66
2021/09/28 03:43:45;;;;;;;10.35;2.33;;;;;;;17.08;69.94;100949.78;5109546;28;20460;-66
2021/09/28 03:46:12;;;;;;;11.68;2.65;;;;;;;16.95;70.02;100911.13;5110245;28;20106;-66
2021/09/28 03:48:39;;;;;;;11.60;3.17;;;;;;;17.18;69.91;100943.91;5094946;28;20071;-65
2021/09/28 03:51:07;;;;;;;7.75;2.00;;;;;;;17.06;69.64;100935.19;5106231;28;20150;-62
2021/09/28 03:53:34;;;;;;;21.65;3.38;;;;;;;17.05;69.61;100939.94;5109659;28;20152;-62
2021/09/28 03:56:00;;;;;;;15.77;2.50;;;;;;;17.17;69.53;100949.91;5104842;28;20090;-64
2021/09/28 03:58:27;;;;;;;15.80;3.33;;;;;;;17.16;69.60;100962.31;5101170;28;20484;-76
2021/09/28 04:00:54;;;;;;;9.65;2.40;;;;;;;17.15;69.61;100974.75;5101026;27;20067;-68
2021/09/28 04:03:21;;;;;;;11.68;2.50;;;;;;;17.13;69.43;100980.72;5100916;28;20122;-66
2021/09/28 04:05:48;;;;;;;9.93;2.92;;;;;;;17.11;69.28;100974.56;5104624;28;20083;-65
2021/09/28 04:08:15;;;;;;;8.77;2.05;;;;;;;17.06;69.36;100980.31;5104101;28;20075;-65
2021/09/28 04:10:41;;;;;;;15.00;2.35;;;;;;;17.12;69.62;100981.03;5106886;28;20059;-61
2021/09/28 04:13:10;;;;;;;10.65;2.92;;;;;;;17.05;69.16;100967.34;5105895;28;20063;-61
2021/09/28 04:15:40;;;;;;;15.85;2.65;;;;;;;16.99;69.14;100962.94;5107704;28;20072;-62
2021/09/28 04:18:12;;;;;;;12.93;2.38;;;;;;;17.03;69.10;100978.94;5096067;27;20058;-62
2021/09/28 04:20:41;;;;;;;8.30;1.98;;;;;;;17.03;69.09;100976.13;5106044;27;20047;-63
2021/09/28 04:23:09;;;;;;;18.98;2.33;;;;;;;16.99;69.38;100979.88;5104077;28;20071;-63
2021/09/28 04:25:37;;;;;;;27.15;4.10;;;;;;;16.92;69.22;100980.31;5100144;28;20131;-62
2021/09/28 04:28:04;;;;;;;11.45;3.47;;;;;;;16.95;69.52;100990.94;5097280;28;20472;-63
2021/09/28 04:30:31;;;;;;;10.18;2.17;;;;;;;16.93;69.40;100992.44;5102673;28;20122;-64
2021/09/28 04:32:58;;;;;;;11.27;2.00;;;;;;;16.84;69.35;100983.84;5100916;28;20119;-64
2021/09/28 04:35:25;;;;;;;11.82;2.40;;;;;;;16.91;69.86;100984.25;5106305;27;20086;-61
2021/09/28 04:37:52;;;;;;;9.00;2.58;;;;;;;16.91;69.67;100989.09;5102565;28;20118;-64
2021/09/28 04:40:19;;;;;;;15.25;2.38;;;;;;;16.92;69.63;100980.31;5099335;28;21575;-65
2021/09/28 04:42:46;;;;;;;12.30;1.77;;;;;;;16.92;69.40;100985.97;5106631;28;20122;-65
2021/09/28 04:45:13;;;;;;;8.60;1.50;;;;;;;16.80;69.93;100972.34;5100399;28;20139;-63
2021/09/28 04:47:40;;;;;;;10.30;2.05;;;;;;;16.89;69.63;100986.59;5099523;28;20163;-63
2021/09/28 04:50:08;;;;;;;8.82;2.08;;;;;;;16.93;69.35;100989.63;5105261;28;20122;-63
2021/09/28 04:52:38;;;;;;;6.40;2.67;;;;;;;16.93;69.47;100995.25;5096700;28;20052;-63
2021/09/28 04:55:06;;;;;;;10.63;2.65;;;;;;;16.95;69.66;100995.75;5099533;28;20127;-62
2021/09/28 04:57:34;;;;;;;10.90;2.47;;;;;;;16.89;69.52;100986.59;5101225;28;20571;-63
2021/09/28 05:00:03;;;;;;;10.30;2.20;;;;;;;16.90;69.41;100976.97;5110400;28;20131;-62
2021/09/28 05:02:30;;;;;;;12.32;2.13;;;;;;;17.02;69.70;100984.88;5108215;28;20127;-66
2021/09/28 05:04:57;;;;;;;11.95;3.05;;;;;;;17.13;69.89;100986.38;5102423;27;20415;-64
2021/09/28 05:07:24;;;;;;;9.23;2.92;;;;;;;17.16;69.63;100991.41;5103248;27;20131;-70
2021/09/28 05:09:50;;;;;;;16.67;2.35;;;;;;;17.19;69.18;100990.75;5102491;28;20139;-69
2021/09/28 05:12:17;;;;;;;5.72;2.35;;;;;;;17.23;68.91;101003.09;5106387;28;20135;-64
2021/09/28 05:14:44;;;;;;;10.63;2.10;;;;;;;17.24;69.18;100999.13;5108646;28;20094;-61
2021/09/28 05:17:11;;;;;;;7.82;3.35;;;;;;;17.23;69.18;100999.41;5088409;28;20491;-64
2021/09/28 05:19:38;;;;;;;12.10;2.53;;;;;;;17.17;68.86;100987.41;5104086;28;20109;-62
2021/09/28 05:22:05;;;;;;;6.40;1.90;;;;;;;17.22;68.66;101004.22;5103475;28;20067;-61
2021/09/28 05:24:31;;;;;;;10.40;2.80;;;;;;;17.14;69.00;101002.16;5099447;28;20078;-66
2021/09/28 05:26:58;;;;;;;8.75;1.83;;;;;;;17.15;68.78;101012.28;5110174;28;20135;-63
2021/09/28 05:29:25;;;;;;;8.30;1.85;;;;;;;17.11;68.96;101011.25;5106857;28;20155;-64
2021/09/28 05:31:52;;;;;;;10.20;2.25;;;;;;;17.08;68.89;101000.56;5100429;28;20035;-64
2021/09/28 05:34:21;;;;;;;8.38;1.95;;;;;;;17.00;68.51;100999.31;5100994;28;20040;-61
2021/09/28 05:36:48;;;;;;;9.80;2.17;;;;;;;17.08;68.61;101008.22;5081567;28;20067;-62
2021/09/28 05:39:15;;;;;;;11.77;2.35;;;;;;;17.05;68.73;101010.50;5099030;28;20156;-59
2021/09/28 05:41:42;;;;;;;8.77;2.50;;;;;;;16.99;69.01;100980.72;5103345;28;20154;-59
2021/09/28 05:44:09;;;;;;;6.35;2.15;;;;;;;16.99;68.68;100986.38;5097668;28;20124;-63
2021/09/28 05:46:37;;;;;;;6.93;2.08;;;;;;;17.10;68.54;100998.28;5108255;28;20134;-55
2021/09/28 05:49:04;;;;;;;14.15;2.30;;;;;;;17.02;68.20;100985.72;5095819;28;20076;-71
2021/09/28 05:51:33;;;;;;;12.27;1.75;;;;;;;17.11;68.09;101005.59;5104457;28;20075;-61
2021/09/28 05:54:01;;;;;;;6.05;1.70;;;;;;;16.71;68.04;100946.00;5106955;28;20480;-62
2021/09/28 05:56:29;;;;;;;5.15;1.65;;;;;;;17.07;68.04;101000.91;5102813;28;20071;-59
2021/09/28 05:58:55;;;;;;;8.13;2.28;;;;;;;17.00;68.45;100998.50;5108855;28;20122;-58
2021/09/28 06:01:22;;;;;;;11.77;2.05;;;;;;;17.15;67.84;100994.50;5102839;28;20144;-61
2021/09/28 06:03:49;;;;;;;10.80;1.67;;;;;;;17.11;67.62;101001.94;5106849;27;20101;-61
2021/09/28 06:06:18;;;;;;;11.90;2.25;;;;;;;17.11;67.54;101008.41;5107360;28;20067;-61
2021/09/28 06:08:45;;;;;;;13.68;2.80;;;;;;;16.92;67.58;100990.75;5104279;28;20131;-61
2021/09/28 06:11:12;;;;;;;11.18;1.98;;;;;;;17.02;67.79;101019.59;5109563;28;20101;-61
2021/09/28 06:13:39;;;;;;;16.17;2.42;;;;;;;16.91;67.45;101018.13;5094877;28;20135;-61
2021/09/28 06:16:06;;;;;;;4.55;1.98;;;;;;;16.79;67.88;101009.34;5105594;28;20075;-61
2021/09/28 06:18:33;;;;;;;8.40;2.28;;;;;;;16.64;67.92;100987.88;5103970;28;20043;-61
2021/09/28 06:20:59;;;;;;;11.50;2.30;;;;;;;16.69;67.71;101009.50;5097624;28;20579;-62
2021/09/28 06:23:26;;;;;;;11.95;2.45;;;;;;;16.64;67.96;101007.59;5096790;28;20048;-61
2021/09/28 06:25:53;;;;;;;9.43;1.75;;;;;;;16.70;67.69;101017.66;5099118;28;20139;-63
2021/09/28 06:28:20;;;;;;;7.22;2.45;;;;;;;16.63;67.73;101003.13;5099863;28;20142;-61
2021/09/28 06:30:47;;;;;;;6.15;1.90;;;;;;;16.61;67.53;101013.84;5103889;28;20071;-62
2021/09/28 06:33:15;;;;;;;15.52;2.60;;;;;;;16.61;67.44;101008.22;5099362;28;20075;-62
2021/09/28 06:35:42;;;;;;;10.82;2.55;;;;;;;16.54;67.47;101013.44;5086311;28;20067;-61
2021/09/28 06:38:09;;;;;;;10.63;2.50;;;;;;;16.52;67.74;101018.56;5099458;28;20126;-62
2021/09/28 06:40:36;;;;;;;8.93;2.10;;;;;;;16.49;67.92;101005.06;5104685;28;20123;-61
2021/09/28 06:43:04;;;;;;;9.27;1.85;;;;;;;16.50;67.66;101009.56;5104397;28;20074;-69
2021/09/28 06:45:31;;;;;;;9.65;2.13;;;;;;;16.53;67.64;101028.69;5104694;28;20380;-59
2021/09/28 06:47:58;;;;;;;8.85;3.00;;;;;;;16.52;67.57;101027.00;5100458;28;20137;-65
2021/09/28 06:50:25;;;;;;;14.50;2.33;;;;;;;16.51;67.35;101019.69;5096596;28;20046;-62
2021/09/28 06:52:53;;;;;;;11.10;3.22;;;;;;;16.52;67.55;101021.38;5093040;28;20467;-63
2021/09/28 06:55:20;;;;;;;10.88;2.38;;;;;;;16.47;67.23;101018.63;5098417;28;20044;-62
2021/09/28 06:57:47;;;;;;;10.68;3.08;;;;;;;16.48;67.17;101025.97;5095460;28;20050;-64
2021/09/28 07:00:14;;;;;;;10.30;3.25;;;;;;;16.33;67.42;101013.78;5104176;28;20127;-64
2021/09/28 07:02:41;;;;;;;13.48;2.53;;;;;;;16.46;67.38;101033.88;5103538;28;20078;-64
2021/09/28 07:05:13;;;;;;;10.43;2.72;;;;;;;16.50;67.28;101037.75;5113342;28;20047;-64
2021/09/28 07:07:40;;;;;;;12.38;3.55;;;;;;;16.52;67.54;101049.56;5113434;28;20051;-63
2021/09/28 07:10:07;;;;;;;11.45;2.33;;;;;;;16.54;67.47;101045.28;5114344;28;20577;-63
2021/09/28 07:12:35;;;;;;;16.88;2.95;;;;;;;16.50;67.33;101040.56;5106325;28;20048;-63
2021/09/28 07:15:04;;;;;;;10.93;2.53;;;;;;;16.63;67.29;101051.06;5119665;27;20098;-63
2021/09/28 07:17:32;;;;;;;12.67;2.33;;;;;;;16.64;67.35;101052.72;5113462;28;20075;-64
2021/09/28 07:19:59;;;;;;;11.18;2.72;;;;;;;16.63;66.97;101036.13;5098045;27;20138;-64
2021/09/28 07:22:26;;;;;;;14.73;3.33;;;;;;;16.75;67.00;101059.03;5110920;28;20138;-63
2021/09/28 07:24:55;;;;;;;17.10;3.30;;;;;;;16.74;66.47;101046.94;5096526;28;20123;-63
2021/09/28 07:27:28;;;;;;;13.40;3.92;;;;;;;16.98;66.63;101057.22;5108241;28;20143;-63
2021/09/28 07:29:55;;;;;;;7.07;2.55;;;;;;;17.07;66.00;101066.63;5105053;28;20134;-63
2021/09/28 07:32:26;;;;;;;12.82;2.42;;;;;;;17.14;66.05;101064.22;5114070;28;20047;-64
2021/09/28 07:34:52;;;;;;;10.80;2.45;;;;;;;17.13;66.00;101064.53;5111784;28;20118;-63
2021/09/28 07:37:24;;;;;;;14.50;3.55;;;;;;;17.31;65.71;101065.59;5098276;28;20075;-64
2021/09/28 07:39:51;;;;;;;13.93;2.78;;;;;;;17.61;65.41;101083.91;5094912;28;20086;-64
2021/09/28 07:42:18;;;;;;;14.32;2.50;;;;;;;17.63;64.81;101062.66;5085465;28;20124;-64
2021/09/28 07:44:46;;;;;;;14.07;3.38;;;;;;;17.87;64.60;101067.25;5109570;28;20166;-64
2021/09/28 07:47:13;;;;;;;13.63;2.63;;;;;;;17.92;63.82;101076.44;5110785;28;20135;-64
2021/09/28 07:49:41;;;;;;;13.32;3.45;;;;;;;17.91;64.01;101069.09;5113684;28;20040;-63
2021/09/28 07:52:08;;;;;;;8.77;2.70;;;;;;;17.74;63.93;101047.16;5090189;28;20127;-64
2021/09/28 07:54:35;;;;;;;8.60;2.30;;;;;;;17.96;64.09;101088.78;5112491;28;20126;-64
2021/09/28 07:57:03;;;;;;;10.55;2.47;;;;;;;17.93;63.89;101082.94;5107906;28;20123;-63
2021/09/28 07:59:30;;;;;;;11.30;2.42;;;;;;;17.96;63.62;101069.00;5109450;27;20627;-63
2021/09/28 08:01:57;;;;;;;10.05;3.10;;;;;;;17.98;63.76;101068.66;5107990;27;20134;-63
2021/09/28 08:04:24;;;;;;;10.57;2.85;;;;;;;18.27;63.53;101075.94;5112128;28;20043;-63
2021/09/28 08:06:52;;;;;;;7.68;2.70;;;;;;;18.89;63.04;101098.69;5114758;28;20127;-63
2021/09/28 08:09:19;;;;;;;13.43;2.72;;;;;;;19.28;62.51;101105.56;5106411;27;20118;-63
2021/09/28 08:11:46;;;;;;;12.57;2.90;;;;;;;19.63;62.25;101112.25;5118222;27;20090;-63
2021/09/28 08:14:13;;;;;;;12.48;2.83;;;;;;;19.82;61.26;101086.44;5119688;27;20491;-61
2021/09/28 08:16:40;;;;;;;13.02;3.30;;;;;;;20.17;60.75;101110.03;5106231;28;20436;-63
2021/09/28 08:19:07;;;;;;;6.95;2.92;;;;;;;20.55;60.10;101103.75;5112559;28;20464;-64
2021/09/28 08:21:34;;;;;;;11.43;3.65;;;;;;;21.18;59.39;101104.09;5096394;28;20131;-64
2021/09/28 08:24:01;;;;;;;7.80;2.50;;;;;;;22.04;57.97;101124.78;5094452;28;20046;-63
2021/09/28 08:29:09;;;;;;;10.48;2.75;;;;;;;23.15;55.58;101125.03;5105663;28;20122;-63
2021/09/28 08:31:40;;;;;;;15.40;3.53;;;;;;;23.63;54.36;101123.44;5110410;28;20048;-62
2021/09/28 08:34:07;;;;;;;10.55;2.97;;;;;;;24.22;53.54;101115.59;5108966;28;20174;-62
2021/09/28 08:36:34;;;;;;;10.13;3.25;;;;;;;24.50;52.21;101082.22;5112712;28;20116;-63
2021/09/28 08:39:09;;;;;;;15.80;3.92;;;;;;;25.52;51.08;101128.38;5110387;28;20075;-63
2021/09/28 08:41:41;;;;;;;9.88;2.58;;;;;;;26.19;49.53;101130.47;5109573;28;20071;-62
2021/09/28 08:44:07;;;;;;;10.48;3.20;;;;;;;26.59;48.49;101141.59;5109823;28;20051;-62
2021/09/28 08:46:34;;;;;;;16.40;3.67;;;;;;;26.80;47.65;101138.38;5106822;28;20132;-62
2021/09/28 08:49:02;;;;;;;9.18;2.60;;;;;;;27.24;46.96;101137.22;5111464;28;20049;-62
2021/09/28 08:51:29;;;;;;;12.65;2.60;;;;;;;27.62;45.71;101130.53;5110470;28;20127;-62
2021/09/28 08:53:56;;;;;;;10.82;2.70;;;;;;;27.89;44.79;101145.78;5108394;28;20480;-63
2021/09/28 08:56:24;;;;;;;8.27;3.92;;;;;;;28.28;44.38;101134.13;5108119;28;20459;-63
2021/09/28 08:58:56;;;;;;;16.08;3.47;;;;;;;28.58;43.41;101126.38;5109805;28;20048;-63
2021/09/28 09:01:24;;;;;;;14.55;3.35;;;;;;;28.75;42.46;101124.09;5108288;28;20074;-63
2021/09/28 09:03:51;;;;;;;11.77;3.60;;;;;;;29.01;42.23;101129.78;5113341;27;20550;-63
2021/09/28 09:06:18;;;;;;;9.63;2.70;;;;;;;29.30;41.15;101130.13;5106121;28;20087;-63
2021/09/28 09:08:48;;;;;;;9.68;3.40;;;;;;;29.45;40.37;101128.19;5095594;28;20075;-63
2021/09/28 09:11:17;;;;;;;8.38;2.42;;;;;;;29.58;39.79;101114.34;5104088;28;20073;-63
2021/09/28 09:13:50;;;;;;;12.93;3.13;;;;;;;29.77;39.39;101128.50;5093003;28;20044;-63
2021/09/28 09:16:18;;;;;;;8.88;2.83;;;;;;;30.01;39.42;101132.81;5108179;28;20100;-63
2021/09/28 09:18:49;;;;;;;7.20;2.55;;;;;;;30.18;39.11;101135.03;5111862;28;20045;-63
2021/09/28 09:21:16;;;;;;;8.90;2.80;;;;;;;30.34;38.52;101145.44;5111857;28;20040;-62
2021/09/28 09:23:51;;;;;;;6.97;2.08;;;;;;;30.36;38.03;101131.44;5109527;28;20132;-62
2021/09/28 09:26:21;;;;;;;9.45;2.28;;;;;;;30.64;37.77;101142.31;5109881;27;20126;-62
2021/09/28 09:28:52;;;;;;;9.73;2.33;;;;;;;30.75;37.03;101151.81;5103276;28;20036;-63
2021/09/28 09:31:33;;;;;;;8.18;2.40;;;;;;;30.76;36.67;101144.84;5108616;28;20119;-62
2021/09/28 09:34:19;;;;;;;5.07;1.77;;;;;;;30.59;36.69;101110.97;5106052;28;22565;-63
2021/09/28 09:37:08;;;;;;;8.57;2.45;;;;;;;30.96;36.98;101141.63;5103610;28;20079;-63
2021/09/28 09:39:48;;;;;;;8.38;3.00;;;;;;;31.13;35.84;101152.41;5112803;28;20134;-63
2021/09/28 09:42:16;;;;;;;9.57;2.28;;;;;;;31.16;35.15;101154.47;5092994;28;20059;-63
2021/09/28 09:44:45;;;;;;;4.72;1.77;;;;;;;31.25;34.81;101154.94;5110175;28;20048;-63
2021/09/28 09:47:35;;;;;;;7.80;3.20;;;;;;;31.25;35.73;101160.69;5108141;28;20162;-63
2021/09/28 09:50:16;;;;;;;6.65;1.83;;;;;;;31.36;34.78;101143.44;5096030;28;20044;-64
2021/09/28 09:53:05;;;;;;;6.68;2.22;;;;;;;31.73;34.74;101150.91;5092441;28;20097;-64
2021/09/28 09:55:33;;;;;;;;;;;;;;;31.55;37.37;101150.88;5092932;28;20511;-64
2021/09/28 09:58:01;;;;;;;7.07;2.30;;;;;;;31.80;34.30;101145.97;5084932;28;19927;-64
2021/09/28 10:00:29;;;;;;;5.00;1.70;;;;;;;31.80;33.71;101151.72;5110673;28;20062;-64
2021/09/28 10:02:56;;;;;;;7.57;2.03;;;;;;;31.68;33.45;101119.53;5104858;28;20356;-64
2021/09/28 10:05:25;;;;;;;9.70;1.85;;;;;;;31.98;33.21;101168.25;5093769;28;20050;-64
2021/09/28 10:07:52;;;;;;;7.10;2.15;;;;;;;32.08;33.07;101173.22;5098558;28;20052;-63
2021/09/28 10:10:20;;;;;;;12.88;1.70;;;;;;;32.23;32.59;101166.16;5104809;28;20081;-64
2021/09/28 10:12:46;;;;;;;7.60;2.28;;;;;;;32.27;32.12;101158.31;5112586;28;20451;-64
2021/09/28 10:15:15;;;;;;;13.82;2.40;;;;;;;32.33;32.00;101153.75;5101090;28;20122;-63
2021/09/28 10:17:43;;;;;;;7.55;2.47;;;;;;;32.44;31.65;101170.28;5088020;28;20092;-63
2021/09/28 10:20:31;;;;;;;5.15;2.00;;;;;;;32.42;32.32;101155.44;5108519;28;20047;-63
2021/09/28 10:23:20;;;;;;;7.47;1.98;;;;;;;32.44;32.60;101158.72;5109881;28;20134;-63
2021/09/28 10:25:47;;;;;;;6.15;2.03;;;;;;;32.52;31.54;101161.19;5111478;28;20132;-64
2021/09/28 10:28:14;;;;;;;8.38;3.03;;;;;;;32.44;31.70;101167.41;5105597;28;20050;-64
2021/09/28 10:30:46;;;;;;;5.75;2.58;;;;;;;32.45;31.46;101148.81;5103390;28;20448;-63
2021/09/28 10:33:22;;;;;;;9.38;2.38;;;;;;;32.61;31.85;101154.94;5104859;28;20163;-64
2021/09/28 10:36:13;;;;;;;5.25;2.22;;;;;;;32.55;31.47;101162.44;5107667;28;20545;-63
2021/09/28 10:38:44;;;;;;;5.32;2.33;;;;;;;32.66;31.42;101156.59;5094952;27;20122;-63
2021/09/28 10:41:29;;;;;;;6.90;2.53;;;;;;;32.60;31.39;101164.88;5098739;28;20123;-63
2021/09/28 10:44:29;;;;;;;9.00;2.42;;;;;;;32.85;31.52;101158.19;5116389;28;20130;-64
2021/09/28 10:46:56;;;;;;;9.45;2.88;;;;;;;33.00;30.82;101165.59;5108795;28;20097;-64
2021/09/28 10:49:30;;;;;;;4.68;1.85;;;;;;;33.11;30.12;101156.84;5112990;28;20134;-64
2021/09/28 10:52:22;;;;;;;6.72;2.05;;;;;;;33.02;30.81;101154.41;5115078;28;20156;-64
2021/09/28 10:55:09;;;;;;;6.72;2.00;;;;;;;33.11;30.58;101154.78;5097579;28;20059;-64
2021/09/28 10:57:54;;;;;;;7.53;2.40;;;;;;;33.37;30.18;101155.44;5110562;28;20545;-64
2021/09/28 11:00:30;;;;;;;7.82;2.00;;;;;;;33.58;29.86;101157.44;5114182;28;20044;-64
2021/09/28 11:02:59;;;;;;;5.20;1.90;;;;;;;33.54;28.40;101154.56;5094875;28;20043;-64
2021/09/28 11:05:32;;;;;;;4.50;1.83;;;;;;;33.69;28.45;101155.28;5111146;28;20047;-64
2021/09/28 11:08:00;;;;;;;6.43;2.38;;;;;;;34.44;27.51;101155.41;5112234;28;20196;-64
2021/09/28 11:10:29;;;;;;;5.20;2.05;;;;;;;35.20;25.97;101154.53;5108299;28;20130;-66
2021/09/28 11:12:56;;;;;;;5.13;1.75;;;;;;;34.85;26.45;101150.81;5111216;28;20083;-65
2021/09/28 11:15:25;;;;;;;2.55;1.40;;;;;;;34.78;26.30;101145.94;5114817;28;20376;-65
2021/09/28 11:17:52;;;;;;;9.60;1.60;;;;;;;34.75;26.11;101157.59;5106171;28;20134;-65
2021/09/28 11:20:26;;;;;;;5.63;1.60;;;;;;;34.55;25.78;101143.72;5121642;28;20063;-64
2021/09/28 11:23:00;;;;;;;3.95;1.20;;;;;;;34.57;25.58;101140.41;5127680;28;20044;-64
2021/09/28 11:25:27;;;;;;;4.53;1.42;;;;;;;34.88;25.60;101144.97;5120216;28;20048;-64
2021/09/28 11:28:04;;;;;;;5.43;1.97;;;;;;;34.77;25.79;101149.25;5102418;28;20684;-63
2021/09/28 11:30:55;;;;;;;7.10;1.92;;;;;;;34.94;26.06;101153.19;5109793;28;20123;-63